createdAt,value
2017-12-06T00:02:16.246Z,96572.13
2017-12-06T00:04:44.164Z,96573.80
2017-12-06T00:07:11.811Z,96573.64
2017-12-06T00:09:39.403Z,96577.45
2017-12-06T00:12:12.824Z,96573.00
2017-12-06T00:14:46.004Z,96577.77
2017-12-06T00:17:15.339Z,96571.42
2017-12-06T00:19:43.123Z,96579.66
2017-12-06T00:22:10.847Z,96587.90
2017-12-06T00:24:38.478Z,96588.05
2017-12-06T00:27:06.264Z,96584.26
2017-12-06T00:29:34.081Z,96587.97
2017-12-06T00:32:04.385Z,96582.92
2017-12-06T00:34:32.039Z,96583.64
2017-12-06T00:36:59.706Z,96576.72
2017-12-06T00:39:27.668Z,96576.56
2017-12-06T00:41:56.070Z,96579.56
2017-12-06T00:44:23.758Z,96573.86
2017-12-06T00:46:51.641Z,96585.45
2017-12-06T00:49:19.557Z,96577.27
2017-12-06T00:51:47.207Z,96569.29
2017-12-06T00:54:14.852Z,96575.91
2017-12-06T00:56:43.928Z,96577.80
2017-12-06T00:59:11.714Z,96574.24
2017-12-06T01:01:39.689Z,96563.18
2017-12-06T01:04:08.355Z,96567.16
2017-12-06T01:06:36.363Z,96556.45
2017-12-06T01:09:04.191Z,96568.89
2017-12-06T01:11:32.566Z,96561.81
2017-12-06T01:14:00.683Z,96561.95
2017-12-06T01:16:28.341Z,96567.42
2017-12-06T01:18:56.202Z,96561.58
2017-12-06T01:21:23.979Z,96559.56
2017-12-06T01:23:52.121Z,96559.82
2017-12-06T01:26:19.910Z,96558.67
2017-12-06T01:28:47.510Z,96555.80
2017-12-06T01:31:17.052Z,96558.25
2017-12-06T01:33:44.761Z,96550.16
2017-12-06T01:36:12.525Z,96544.41
2017-12-06T01:38:40.159Z,96551.03
2017-12-06T01:41:07.718Z,96542.35
2017-12-06T01:43:35.326Z,96557.02
2017-12-06T01:46:03.027Z,96544.39
2017-12-06T01:48:31.720Z,96547.73
2017-12-06T01:50:59.378Z,96547.23
2017-12-06T01:53:27.042Z,96545.80
2017-12-06T01:55:54.778Z,96540.48
2017-12-06T01:58:22.704Z,96537.27
2017-12-06T02:00:50.630Z,96538.98
2017-12-06T02:03:18.983Z,96530.55
2017-12-06T02:05:46.637Z,96526.67
2017-12-06T02:08:14.318Z,96526.14
2017-12-06T02:10:42.743Z,96529.42
2017-12-06T02:13:10.460Z,96528.75
2017-12-06T02:15:38.141Z,96518.34
2017-12-06T02:18:06.075Z,96497.78
2017-12-06T02:20:34.355Z,96511.73
2017-12-06T02:23:03.007Z,96506.66
2017-12-06T02:25:30.836Z,96509.86
2017-12-06T02:27:58.720Z,96489.41
2017-12-06T02:30:26.381Z,96510.11
2017-12-06T02:32:54.014Z,96497.38
2017-12-06T02:35:21.666Z,96497.58
2017-12-06T02:37:49.373Z,96498.17
2017-12-06T02:40:30.255Z,96502.55
2017-12-06T02:43:09.679Z,96493.53
2017-12-06T02:45:37.344Z,96491.00
2017-12-06T02:48:05.019Z,96505.17
2017-12-06T02:50:32.642Z,96501.34
2017-12-06T02:53:00.228Z,96509.39
2017-12-06T02:55:28.065Z,96503.30
2017-12-06T02:57:57.013Z,96510.97
2017-12-06T03:00:25.662Z,96500.94
2017-12-06T03:02:53.537Z,96506.69
2017-12-06T03:05:21.834Z,96518.73
2017-12-06T03:07:49.683Z,96515.11
2017-12-06T03:10:17.434Z,96511.88
2017-12-06T03:12:45.141Z,96495.33
2017-12-06T03:15:12.855Z,96512.17
2017-12-06T03:17:41.498Z,96520.09
2017-12-06T03:20:09.273Z,96519.74
2017-12-06T03:22:36.920Z,96517.19
2017-12-06T03:25:04.519Z,96528.65
2017-12-06T03:27:32.197Z,96517.33
2017-12-06T03:30:00.606Z,96529.45
2017-12-06T03:32:29.109Z,96521.06
2017-12-06T03:34:56.872Z,96526.25
2017-12-06T03:37:24.609Z,96523.31
2017-12-06T03:39:52.851Z,96529.67
2017-12-06T03:42:20.689Z,96529.92
2017-12-06T03:44:48.524Z,96528.08
2017-12-06T03:47:16.175Z,96531.52
2017-12-06T03:49:43.860Z,96534.34
2017-12-06T03:52:11.990Z,96532.50
2017-12-06T03:54:40.719Z,96531.63
2017-12-06T03:57:08.417Z,96541.48
2017-12-06T03:59:37.481Z,96536.69
2017-12-06T04:02:05.119Z,96533.56
2017-12-06T04:04:32.796Z,96531.64
2017-12-06T04:07:00.785Z,96537.69
2017-12-06T04:09:28.856Z,96538.26
2017-12-06T04:11:56.611Z,96537.66
2017-12-06T04:14:24.297Z,96534.00
2017-12-06T04:16:52.133Z,96530.27
2017-12-06T04:19:19.909Z,96528.45
2017-12-06T04:21:49.092Z,96528.22
2017-12-06T04:24:16.793Z,96531.56
2017-12-06T04:26:44.628Z,96518.84
2017-12-06T04:29:12.391Z,96528.00
2017-12-06T04:31:40.011Z,96524.82
2017-12-06T04:34:07.616Z,96529.61
2017-12-06T04:36:35.356Z,96531.22
2017-12-06T04:39:03.014Z,96536.03
2017-12-06T04:41:31.577Z,96531.65
2017-12-06T04:43:59.480Z,96531.89
2017-12-06T04:46:27.132Z,96528.55
2017-12-06T04:48:56.257Z,96532.56
2017-12-06T04:51:24.226Z,96530.75
2017-12-06T04:53:51.921Z,96526.67
2017-12-06T04:56:19.593Z,96528.70
2017-12-06T04:58:47.214Z,96524.33
2017-12-06T05:01:15.013Z,96527.04
2017-12-06T05:03:42.819Z,96527.77
2017-12-06T05:06:10.509Z,96531.70
2017-12-06T05:08:38.157Z,96531.52
2017-12-06T05:11:05.778Z,96524.49
2017-12-06T05:13:36.030Z,96521.11
2017-12-06T05:16:03.706Z,96529.54
2017-12-06T05:18:31.462Z,96531.45
2017-12-06T05:20:59.179Z,96528.45
2017-12-06T05:23:26.794Z,96538.59
2017-12-06T05:25:54.433Z,96554.94
2017-12-06T05:28:23.254Z,96553.97
2017-12-06T05:30:51.838Z,96543.39
2017-12-06T05:33:19.616Z,96543.27
2017-12-06T05:35:47.469Z,96549.80
2017-12-06T05:38:15.075Z,96546.89
2017-12-06T05:40:42.703Z,96543.71
2017-12-06T05:43:10.438Z,96546.39
2017-12-06T05:45:38.238Z,96540.89
2017-12-06T05:48:06.726Z,96542.55
2017-12-06T05:50:34.367Z,96547.85
2017-12-06T05:53:01.991Z,96541.98
2017-12-06T05:55:29.809Z,96537.36
2017-12-06T05:57:58.234Z,96532.50
2017-12-06T06:00:25.909Z,96527.53
2017-12-06T06:02:54.221Z,96543.45
2017-12-06T06:05:21.986Z,96541.97
2017-12-06T06:07:49.854Z,96542.35
2017-12-06T06:10:17.552Z,96548.67
2017-12-06T06:12:45.428Z,96549.08
2017-12-06T06:15:13.077Z,96547.28
2017-12-06T06:17:41.627Z,96550.12
2017-12-06T06:20:09.290Z,96553.45
2017-12-06T06:22:36.956Z,96556.92
2017-12-06T06:25:04.558Z,96552.66
2017-12-06T06:27:32.459Z,96563.64
2017-12-06T06:30:00.454Z,96565.13
2017-12-06T06:32:28.070Z,96561.67
2017-12-06T06:34:56.316Z,96565.72
2017-12-06T06:37:23.971Z,96560.59
2017-12-06T06:39:51.574Z,96573.09
2017-12-06T06:42:20.619Z,96568.45
2017-12-06T06:44:48.250Z,96565.97
2017-12-06T06:47:16.822Z,96571.81
2017-12-06T06:49:44.394Z,96566.20
2017-12-06T06:52:12.017Z,96573.70
2017-12-06T06:54:39.846Z,96579.89
2017-12-06T06:57:07.841Z,96576.28
2017-12-06T06:59:35.563Z,96585.13
2017-12-06T07:02:03.211Z,96585.80
2017-12-06T07:04:32.302Z,96583.27
2017-12-06T07:07:01.156Z,96585.41
2017-12-06T07:09:28.975Z,96582.88
2017-12-06T07:11:58.342Z,96579.13
2017-12-06T07:14:26.111Z,96582.22
2017-12-06T07:16:53.754Z,96578.31
2017-12-06T07:19:22.517Z,96577.66
2017-12-06T07:21:50.534Z,96583.81
2017-12-06T07:24:18.170Z,96570.70
2017-12-06T07:26:46.825Z,96575.53
2017-12-06T07:29:14.545Z,96580.86
2017-12-06T07:31:42.249Z,96578.75
2017-12-06T07:34:10.221Z,96575.92
2017-12-06T07:36:38.816Z,96576.73
2017-12-06T07:39:07.622Z,96575.39
2017-12-06T07:41:35.828Z,96580.09
2017-12-06T07:44:03.479Z,96568.43
2017-12-06T07:46:31.438Z,96571.92
2017-12-06T07:49:00.195Z,96579.81
2017-12-06T07:51:29.061Z,96574.47
2017-12-06T07:53:56.732Z,96577.93
2017-12-06T07:56:24.356Z,96566.96
2017-12-06T07:58:54.898Z,96568.57
2017-12-06T08:01:22.528Z,96570.03
2017-12-06T08:03:50.131Z,96576.73
2017-12-06T08:06:17.786Z,96580.22
2017-12-06T08:08:45.387Z,96577.41
2017-12-06T08:11:13.301Z,96590.80
2017-12-06T08:13:41.111Z,96584.64
2017-12-06T08:16:08.762Z,96599.77
2017-12-06T08:18:36.453Z,96599.20
2017-12-06T08:21:04.413Z,96602.14
2017-12-06T08:23:32.321Z,96593.32
2017-12-06T08:25:59.905Z,96606.84
2017-12-06T08:28:28.099Z,96598.83
2017-12-06T08:30:56.574Z,96600.81
2017-12-06T08:33:24.235Z,96596.81
2017-12-06T08:35:52.056Z,96597.34
2017-12-06T08:38:20.537Z,96591.44
2017-12-06T08:40:48.339Z,96582.91
2017-12-06T08:43:15.963Z,96579.95
2017-12-06T08:45:43.646Z,96591.87
2017-12-06T08:48:11.297Z,96594.27
2017-12-06T08:50:39.565Z,96587.16
2017-12-06T08:53:07.272Z,96595.98
2017-12-06T08:55:34.866Z,96597.16
2017-12-06T08:58:02.541Z,96595.11
2017-12-06T09:00:30.181Z,96592.22
2017-12-06T09:02:57.982Z,96613.41
2017-12-06T09:05:25.598Z,96602.02
2017-12-06T09:07:53.874Z,96604.36
2017-12-06T09:10:22.303Z,96606.12
2017-12-06T09:12:50.235Z,96604.23
2017-12-06T09:15:17.842Z,96602.37
2017-12-06T09:17:45.427Z,96613.66
2017-12-06T09:20:13.209Z,96607.77
2017-12-06T09:22:40.912Z,96607.13
2017-12-06T09:25:09.070Z,96602.82
2017-12-06T09:27:36.960Z,96601.48
2017-12-06T09:30:07.132Z,96604.04
2017-12-06T09:32:34.768Z,96593.48
2017-12-06T09:35:02.363Z,96602.45
2017-12-06T09:37:30.214Z,96601.48
2017-12-06T09:39:58.044Z,96581.94
2017-12-06T09:42:26.575Z,96580.91
2017-12-06T09:44:55.116Z,96566.97
2017-12-06T09:47:22.939Z,96565.22
2017-12-06T09:49:50.693Z,96560.84
2017-12-06T09:52:19.163Z,96553.43
2017-12-06T09:54:47.924Z,96565.78
2017-12-06T09:57:15.606Z,96550.48
2017-12-06T09:59:43.277Z,96555.84
2017-12-06T10:02:10.949Z,96552.20
2017-12-06T10:04:38.546Z,96546.71
2017-12-06T10:07:06.368Z,96547.75
2017-12-06T10:09:33.999Z,96537.34
2017-12-06T10:12:01.654Z,96547.94
2017-12-06T10:14:29.228Z,96536.11
2017-12-06T10:16:56.975Z,96526.82
2017-12-06T10:19:24.525Z,96524.66
2017-12-06T10:21:52.522Z,96529.45
2017-12-06T10:24:21.236Z,96524.52
2017-12-06T10:26:49.066Z,96519.38
2017-12-06T10:29:17.172Z,96524.48
2017-12-06T10:31:44.771Z,96541.67
2017-12-06T10:34:12.382Z,96524.33
2017-12-06T10:36:39.982Z,96521.47
2017-12-06T10:39:07.581Z,96525.41
2017-12-06T10:41:35.971Z,96518.89
2017-12-06T10:44:05.304Z,96523.98
2017-12-06T10:46:33.060Z,96523.63
2017-12-06T10:49:00.720Z,96520.52
2017-12-06T10:51:28.401Z,96520.79
2017-12-06T10:53:55.965Z,96522.29
2017-12-06T10:56:23.663Z,96512.27
2017-12-06T10:58:59.933Z,96514.10
2017-12-06T11:01:27.830Z,96518.44
2017-12-06T11:03:55.434Z,96519.63
2017-12-06T11:06:23.299Z,96515.89
2017-12-06T11:08:50.935Z,96517.30
2017-12-06T11:11:18.564Z,96509.45
2017-12-06T11:13:46.387Z,96517.28
2017-12-06T11:16:14.211Z,96517.22
2017-12-06T11:18:42.012Z,96519.66
2017-12-06T11:21:09.732Z,96528.95
2017-12-06T11:23:37.626Z,96513.72
2017-12-06T11:26:05.502Z,96520.42
2017-12-06T11:28:33.412Z,96514.54
2017-12-06T11:31:01.376Z,96518.67
2017-12-06T11:33:29.040Z,96513.11
2017-12-06T11:35:57.379Z,96511.48
2017-12-06T11:38:25.052Z,96518.80
2017-12-06T11:40:52.731Z,96515.89
2017-12-06T11:43:20.432Z,96511.73
2017-12-06T11:45:49.542Z,96503.83
2017-12-06T11:48:17.709Z,96505.30
2017-12-06T11:50:45.437Z,96491.77
2017-12-06T11:53:13.145Z,96488.84
2017-12-06T11:55:40.750Z,96497.00
2017-12-06T11:58:08.391Z,96495.63
2017-12-06T12:00:37.451Z,96485.32
2017-12-06T12:03:05.077Z,96494.82
2017-12-06T12:05:33.697Z,96494.77
2017-12-06T12:08:01.525Z,96483.36
2017-12-06T12:10:29.215Z,96478.62
2017-12-06T12:12:56.844Z,96487.09
2017-12-06T12:15:24.555Z,96492.58
2017-12-06T12:17:52.212Z,96478.34
2017-12-06T12:20:20.719Z,96481.73
2017-12-06T12:22:48.439Z,96483.02
2017-12-06T12:25:16.205Z,96487.29
2017-12-06T12:27:44.116Z,96475.17
2017-12-06T12:30:12.107Z,96478.52
2017-12-06T12:32:40.599Z,96468.27
2017-12-06T12:35:08.278Z,96464.22
2017-12-06T12:37:35.925Z,96466.23
2017-12-06T12:40:03.541Z,96458.29
2017-12-06T12:42:33.769Z,96470.73
2017-12-06T12:45:01.666Z,96456.29
2017-12-06T12:47:30.015Z,96463.81
2017-12-06T12:49:58.300Z,96455.50
2017-12-06T12:52:25.932Z,96456.78
2017-12-06T12:54:54.499Z,96455.77
2017-12-06T12:57:22.349Z,96456.77
2017-12-06T12:59:50.123Z,96448.73
2017-12-06T13:02:17.802Z,96455.45
2017-12-06T13:04:45.595Z,96452.49
2017-12-06T13:07:13.344Z,96456.66
2017-12-06T13:09:41.081Z,96458.09
2017-12-06T13:12:08.725Z,96449.25
2017-12-06T13:14:37.357Z,96441.64
2017-12-06T13:17:05.054Z,96456.86
2017-12-06T13:19:32.938Z,96461.01
2017-12-06T13:22:00.587Z,96467.23
2017-12-06T13:24:28.371Z,96453.38
2017-12-06T13:26:56.076Z,96465.20
2017-12-06T13:29:23.803Z,96454.44
2017-12-06T13:31:52.153Z,96458.50
2017-12-06T13:34:20.046Z,96476.00
2017-12-06T13:36:48.053Z,96471.27
2017-12-06T13:39:15.896Z,96468.88
2017-12-06T13:41:43.600Z,96478.16
2017-12-06T13:44:11.812Z,96465.19
2017-12-06T13:46:40.909Z,96467.78
2017-12-06T13:49:08.626Z,96474.16
2017-12-06T13:51:37.042Z,96465.70
2017-12-06T13:54:04.815Z,96461.19
2017-12-06T13:56:32.482Z,96477.21
2017-12-06T13:59:00.211Z,96476.97
2017-12-06T14:01:27.854Z,96466.76
2017-12-06T14:03:55.724Z,96473.94
2017-12-06T14:06:24.100Z,96472.30
2017-12-06T14:08:51.934Z,96466.09
2017-12-06T14:11:19.594Z,96465.94
2017-12-06T14:13:48.001Z,96466.79
2017-12-06T14:16:16.178Z,96478.55
2017-12-06T14:18:44.498Z,96476.68
2017-12-06T14:21:12.881Z,96468.78
2017-12-06T14:23:40.647Z,96460.61
2017-12-06T14:26:08.316Z,96453.34
2017-12-06T14:28:36.996Z,96461.66
2017-12-06T14:31:05.008Z,96457.97
2017-12-06T14:33:33.948Z,96465.80
2017-12-06T14:36:01.642Z,96474.46
2017-12-06T14:38:29.318Z,96474.97
2017-12-06T14:40:56.986Z,96477.94
2017-12-06T14:43:25.161Z,96468.59
2017-12-06T14:45:53.003Z,96465.63
2017-12-06T14:48:20.766Z,96468.89
2017-12-06T14:50:48.956Z,96467.59
2017-12-06T14:53:16.802Z,96460.45
2017-12-06T14:55:44.642Z,96455.66
2017-12-06T14:58:12.309Z,96454.61
2017-12-06T15:00:40.448Z,96460.27
2017-12-06T15:03:08.420Z,96459.95
2017-12-06T15:05:36.252Z,96463.13
2017-12-06T15:08:04.133Z,96462.31
2017-12-06T15:10:32.027Z,96461.60
2017-12-06T15:12:59.748Z,96468.84
2017-12-06T15:15:27.444Z,96466.50
2017-12-06T15:17:55.174Z,96475.05
2017-12-06T15:20:22.879Z,96469.59
2017-12-06T15:22:50.901Z,96462.05
2017-12-06T15:25:18.594Z,96461.81
2017-12-06T15:27:46.384Z,96455.84
2017-12-06T15:30:14.184Z,96461.58
2017-12-06T15:32:42.784Z,96450.36
2017-12-06T15:35:11.177Z,96449.13
2017-12-06T15:37:39.250Z,96452.62
2017-12-06T15:40:07.120Z,96449.37
2017-12-06T15:42:35.804Z,96454.05
2017-12-06T15:45:04.269Z,96452.62
2017-12-06T15:47:31.943Z,96448.04
2017-12-06T15:49:59.583Z,96449.80
2017-12-06T15:52:27.350Z,96445.20
2017-12-06T15:54:55.015Z,96436.41
2017-12-06T15:57:22.636Z,96438.40
2017-12-06T15:59:50.303Z,96435.61
2017-12-06T16:02:17.974Z,96435.64
2017-12-06T16:04:45.775Z,96435.34
2017-12-06T16:07:13.421Z,96432.33
2017-12-06T16:09:41.131Z,96429.55
2017-12-06T16:12:08.918Z,96428.03
2017-12-06T16:14:36.671Z,96426.61
2017-12-06T16:17:04.616Z,96430.48
2017-12-06T16:19:36.375Z,96422.90
2017-12-06T16:22:06.305Z,96422.88
2017-12-06T16:24:35.588Z,96422.58
2017-12-06T16:27:03.235Z,96418.27
2017-12-06T16:29:31.781Z,96421.27
2017-12-06T16:31:59.502Z,96417.69
2017-12-06T16:34:28.214Z,96420.13
2017-12-06T16:37:07.778Z,96423.86
2017-12-06T16:39:35.638Z,96421.72
2017-12-06T16:42:03.496Z,96422.04
2017-12-06T16:44:31.200Z,96430.01
2017-12-06T16:46:59.150Z,96419.45
2017-12-06T16:49:26.942Z,96415.34
2017-12-06T16:51:54.628Z,96428.63
2017-12-06T16:54:22.280Z,96415.42
2017-12-06T16:56:49.945Z,96424.43
2017-12-06T16:59:17.720Z,96426.84
2017-12-06T17:01:45.468Z,96422.20
2017-12-06T17:04:13.179Z,96430.12
2017-12-06T17:06:40.910Z,96425.31
2017-12-06T17:09:08.572Z,96434.48
2017-12-06T17:11:36.369Z,96431.95
2017-12-06T17:14:04.148Z,96437.61
2017-12-06T17:16:31.852Z,96443.50
2017-12-06T17:18:59.973Z,96445.44
2017-12-06T17:21:27.683Z,96440.89
2017-12-06T17:23:55.844Z,96441.41
2017-12-06T17:26:23.708Z,96439.34
2017-12-06T17:29:05.185Z,96438.66
2017-12-06T17:31:47.897Z,96434.33
2017-12-06T17:34:15.876Z,96437.82
2017-12-06T17:36:45.173Z,96431.27
2017-12-06T17:39:12.848Z,96433.27
2017-12-06T17:41:40.490Z,96425.20
2017-12-06T17:44:08.178Z,96423.81
2017-12-06T17:46:36.304Z,96419.88
2017-12-06T17:49:05.033Z,96416.60
2017-12-06T17:51:33.055Z,96421.31
2017-12-06T17:54:01.594Z,96430.98
2017-12-06T17:56:29.349Z,96425.92
2017-12-06T17:58:57.456Z,96431.53
2017-12-06T18:01:25.376Z,96430.54
2017-12-06T18:03:53.130Z,96431.36
2017-12-06T18:06:21.633Z,96421.31
2017-12-06T18:08:49.580Z,96424.94
2017-12-06T18:11:18.481Z,96421.88
2017-12-06T18:13:46.239Z,96407.52
2017-12-06T18:16:14.182Z,96390.22
2017-12-06T18:18:41.959Z,96397.90
2017-12-06T18:21:09.615Z,96414.77
2017-12-06T18:23:37.270Z,96407.84
2017-12-06T18:26:06.424Z,96410.84
2017-12-06T18:28:34.144Z,96407.11
2017-12-06T18:31:01.902Z,96402.53
2017-12-06T18:33:32.459Z,96403.75
2017-12-06T18:36:00.109Z,96400.17
2017-12-06T18:38:27.828Z,96398.42
2017-12-06T18:40:55.617Z,96401.66
2017-12-06T18:43:23.352Z,96395.41
2017-12-06T18:45:51.140Z,96402.63
2017-12-06T18:48:18.790Z,96406.11
2017-12-06T18:50:46.543Z,96402.10
2017-12-06T18:53:14.462Z,96402.78
2017-12-06T18:55:43.155Z,96403.19
2017-12-06T18:58:11.813Z,96398.25
2017-12-06T19:00:39.932Z,96398.25
2017-12-06T19:03:08.085Z,96391.81
2017-12-06T19:05:35.732Z,96394.52
2017-12-06T19:08:03.442Z,96392.25
2017-12-06T19:10:31.759Z,96390.08
2017-12-06T19:12:59.471Z,96393.67
2017-12-06T19:15:27.208Z,96395.82
2017-12-06T19:17:54.872Z,96391.00
2017-12-06T19:20:22.574Z,96385.25
2017-12-06T19:22:51.584Z,96378.05
2017-12-06T19:25:20.068Z,96375.00
2017-12-06T19:34:54.374Z,96374.31
2017-12-06T19:37:22.585Z,96375.94
2017-12-06T19:39:50.524Z,96369.78
2017-12-06T19:42:20.135Z,96369.38
2017-12-06T19:44:47.813Z,96373.79
2017-12-06T19:47:15.427Z,96359.73
2017-12-06T19:49:43.006Z,96368.97
2017-12-06T19:52:10.641Z,96363.50
2017-12-06T19:54:38.298Z,96367.91
2017-12-06T19:57:05.946Z,96370.30
2017-12-06T19:59:33.653Z,96377.52
2017-12-06T20:02:01.453Z,96370.83
2017-12-06T20:04:29.086Z,96379.53
2017-12-06T20:06:56.678Z,96375.52
2017-12-06T20:09:24.324Z,96377.80
2017-12-06T20:11:52.073Z,96380.87
2017-12-06T20:14:20.645Z,96370.71
2017-12-06T20:16:49.148Z,96368.31
2017-12-06T20:19:16.940Z,96368.31
2017-12-06T20:21:46.337Z,96368.16
2017-12-06T20:24:13.902Z,96368.97
2017-12-06T20:26:42.315Z,96377.92
2017-12-06T20:29:09.849Z,96371.11
2017-12-06T20:31:37.658Z,96373.50
2017-12-06T20:34:05.442Z,96364.71
2017-12-06T20:36:33.252Z,96368.28
2017-12-06T20:39:01.071Z,96363.49
2017-12-06T20:41:28.809Z,96378.97
2017-12-06T20:43:56.477Z,96370.31
2017-12-06T20:46:25.362Z,96371.10
2017-12-06T20:48:53.063Z,96374.02
2017-12-06T20:51:20.774Z,96374.19
2017-12-06T20:53:48.589Z,96377.91
2017-12-06T20:56:16.223Z,96377.23
2017-12-06T20:58:44.056Z,96389.11
2017-12-06T21:01:14.325Z,96381.23
2017-12-06T21:03:43.143Z,96373.99
2017-12-06T21:06:11.960Z,96373.21
2017-12-06T21:08:40.476Z,96369.72
2017-12-06T21:11:09.704Z,96373.59
2017-12-06T21:13:37.407Z,96382.27
2017-12-06T21:16:05.233Z,96379.23
2017-12-06T21:18:33.107Z,96379.38
2017-12-06T21:21:00.747Z,96377.09
2017-12-06T21:23:28.420Z,96382.56
2017-12-06T21:25:56.063Z,96376.69
2017-12-06T21:28:23.897Z,96375.48
2017-12-06T21:30:52.329Z,96374.42
2017-12-06T21:33:20.016Z,96375.75
2017-12-06T21:35:47.748Z,96375.37
2017-12-06T21:38:15.738Z,96371.88
2017-12-06T21:40:43.395Z,96366.70
2017-12-06T21:43:11.049Z,96370.82
2017-12-06T21:45:39.293Z,96370.29
2017-12-06T21:48:06.977Z,96372.85
2017-12-06T21:50:34.528Z,96375.88
2017-12-06T21:53:02.257Z,96378.44
2017-12-06T21:55:30.514Z,96375.08
2017-12-06T21:57:58.196Z,96388.20
2017-12-06T22:00:26.067Z,96378.83
2017-12-06T22:02:53.759Z,96384.59
2017-12-06T22:05:21.940Z,96383.14
2017-12-06T22:07:49.868Z,96387.68
2017-12-06T22:10:17.423Z,96382.73
2017-12-06T22:12:45.161Z,96372.97
2017-12-06T22:15:13.043Z,96389.02
2017-12-06T22:17:40.684Z,96380.31
2017-12-06T22:20:08.409Z,96380.84
2017-12-06T22:22:36.020Z,96381.50
2017-12-06T22:25:04.466Z,96377.86
2017-12-06T22:30:16.571Z,96367.03
2017-12-06T22:32:46.457Z,96366.63
2017-12-06T22:35:14.269Z,96370.39
2017-12-06T22:37:42.176Z,96365.80
2017-12-06T22:40:09.823Z,96362.28
2017-12-06T22:42:37.425Z,96356.28
2017-12-06T22:45:15.721Z,96365.68
2017-12-06T22:47:43.371Z,96368.99
2017-12-06T22:50:11.905Z,96363.14
2017-12-06T22:52:40.411Z,96364.42
2017-12-06T22:55:08.894Z,96371.42
2017-12-06T22:57:37.388Z,96371.87
2017-12-06T23:00:06.305Z,96370.28
2017-12-06T23:02:33.986Z,96373.44
2017-12-06T23:05:01.646Z,96360.21
2017-12-06T23:07:30.381Z,96359.40
2017-12-06T23:09:58.739Z,96352.86
2017-12-06T23:12:26.978Z,96359.59
2017-12-06T23:14:54.780Z,96352.11
2017-12-06T23:17:23.386Z,96344.08
2017-12-06T23:19:51.125Z,96340.47
2017-12-06T23:22:18.770Z,96346.36
2017-12-06T23:24:46.397Z,96340.06
2017-12-06T23:27:14.170Z,96338.05
2017-12-06T23:29:43.346Z,96339.25
2017-12-06T23:32:11.051Z,96331.66
2017-12-06T23:34:38.706Z,96341.70
2017-12-06T23:37:06.919Z,96328.96
2017-12-06T23:39:35.113Z,96330.52
2017-12-06T23:42:02.792Z,96338.16
2017-12-06T23:44:31.345Z,96334.81
2017-12-06T23:46:58.967Z,96332.12
2017-12-06T23:49:26.761Z,96333.68
2017-12-06T23:51:54.345Z,96326.53
2017-12-06T23:54:22.960Z,96334.09
2017-12-06T23:56:51.307Z,96336.06
2017-12-06T23:59:19.334Z,96340.47
